Flight Track Log - Related Links

Times and Time Zones

All times are in EDT time to prevent confusion due to time zone crossing. See the AWE1940 flight status page for this flight to view local times or setup timezone preferences in your user account.

Time Position Orientation Groundspeed Altitude Reporting Facility
EDT Latitude Longitude Course Direction KTS MPH feet Rate Location/Type
Wed 07:07:18 PM 28.0000 -82.5333 360° North 162 186 900  Level Tampa TRACON
Wed 07:07:30 PM 28.0000 -82.5333 360° North 163 188 1,300 1,846 Climbing Tampa TRACON
Wed 07:08:36 PM 28.0667 -82.5333 360° North 229 264 3,300 2,048 Climbing Tampa TRACON
Wed 07:09:36 PM 28.1500 -82.5333 360° North 279 321 5,600 2,243 Climbing Tampa TRACON
Wed 07:12:02 PM 28.3247 -82.5600 352° North 292 336 11,000 1,961 Climbing Jacksonville Center
Wed 07:13:01 PM 28.4269 -82.5644 358° North 321 369 12,300 1,800 Climbing Jacksonville Center
Wed 07:14:02 PM 28.5336 -82.5736 356° North 360 414 14,600 2,450 Climbing Jacksonville Center
Wed 07:15:01 PM 28.6461 -82.5781 358° North 384 442 17,200 2,250 Climbing Jacksonville Center
Wed 07:16:02 PM 28.7736 -82.5847 357° North 399 459 19,100 1,835 Climbing Jacksonville Center
Wed 07:17:02 PM 28.8947 -82.5914 357° North 412 474 20,900 1,700 Climbing Jacksonville Center
Wed 07:18:02 PM 29.0178 -82.5981 357° North 424 488 22,500 1,613 Climbing Jacksonville Center
Wed 07:19:01 PM 29.1472 -82.6050 357° North 444 511 24,100 1,513 Climbing Jacksonville Center
Wed 07:20:01 PM 29.2767 -82.6142 356° North 459 528 25,500 1,650 Climbing Jacksonville Center
Wed 07:21:01 PM 29.4103 -82.6231 357° North 472 543 27,400 1,650 Climbing Jacksonville Center
Wed 07:22:01 PM 29.5397 -82.6300 357° North 472 543 28,800 1,450 Climbing Jacksonville Center
Wed 07:23:01 PM 29.6733 -82.6369 357° North 477 549 30,300 1,450 Climbing Jacksonville Center
Wed 07:24:01 PM 29.7903 -82.6461 356° North 477 549 31,700 1,300 Climbing Jacksonville Center
Wed 07:25:01 PM 29.9197 -82.6531 357° North 477 549 32,900 600 Climbing Jacksonville Center
Wed 07:26:01 PM 30.0514 -82.6575 358° North 472 543 32,900  Level Jacksonville Center
Wed 07:27:01 PM 30.1808 -82.6644 357° North 467 537 32,900  Level Jacksonville Center
Wed 07:28:01 PM 30.3103 -82.6736 357° North 467 537 32,900  Level Jacksonville Center
Wed 07:29:01 PM 30.4439 -82.6806 357° North 467 537 32,900  Level Jacksonville Center
Wed 07:30:01 PM 30.5733 -82.6803 360° North 462 532 32,900  Level Jacksonville Center
Wed 07:31:01 PM 30.7028 -82.6558 North 462 532 32,900  Level Jacksonville Center
Wed 07:32:02 PM 30.8364 -82.6311 North 468 539 32,900  Level Jacksonville Center
Wed 07:33:01 PM 30.9656 -82.6092 North 468 539 32,900  Level Jacksonville Center
Wed 07:34:01 PM 31.0972 -82.5892 North 468 539 32,900  Level Jacksonville Center
Wed 07:35:01 PM 31.2328 -82.5647 North 468 539 32,900  Level Jacksonville Center
Wed 07:36:01 PM 31.3769 -82.5347 10° North 468 539 32,900 -450 Level Jacksonville Center
Wed 07:37:01 PM 31.5042 -82.5150 North 468 539 32,000 -900 Descending Jacksonville Center
Wed 07:38:01 PM 31.6336 -82.4900 North 463 533 31,100 -333 Descending Jacksonville Center
Wed 07:40:19 PM 31.9181 -82.4483 North 464 534 30,900 -61 Descending Atlanta Center
Wed 07:41:19 PM 32.0492 -82.4289 North 464 534 30,900  Level Atlanta Center
Wed 07:42:19 PM 32.1803 -82.4094 North 464 534 30,900  Level Atlanta Center
Wed 07:43:19 PM 32.3117 -82.3850 North 469 540 30,900  Level Atlanta Center
Wed 07:44:19 PM 32.4428 -82.3678 North 469 540 30,900  Level Atlanta Center
Wed 07:45:19 PM 32.5781 -82.3428 North 475 547 30,900  Level Atlanta Center
Wed 07:46:19 PM 32.7114 -82.3206 North 481 554 30,900  Level Atlanta Center
Wed 07:47:19 PM 32.8447 -82.3031 North 481 554 30,900  Level Atlanta Center
Wed 07:48:19 PM 32.9758 -82.2808 North 481 554 30,900  Level Atlanta Center
Wed 07:49:19 PM 33.1092 -82.2606 North 481 554 30,900  Level Atlanta Center
Wed 07:50:19 PM 33.2425 -82.2356 North 481 554 30,900  Level Atlanta Center
Wed 07:51:19 PM 33.3717 -82.2156 North 481 554 30,900  Level Atlanta Center
Wed 07:52:19 PM 33.5069 -82.1953 North 481 554 30,900  Level Atlanta Center
Wed 07:53:19 PM 33.6381 -82.1725 North 481 554 30,900 -600 Level Atlanta Center
Wed 07:54:19 PM 33.7819 -82.1594 North 481 554 29,700 -2,000 Descending Atlanta Center
Wed 07:55:19 PM 33.9156 -82.1564 North 476 548 26,900 -2,900 Descending Atlanta Center
Wed 07:56:19 PM 34.0511 -82.1583 359° North 476 548 23,900 -1,500 Descending Atlanta Center
Wed 07:57:19 PM 34.1825 -82.1556 North 476 548 23,900 -450 Level Atlanta Center
Wed 07:58:19 PM 34.3006 -82.0975 22° Northeast 452 520 23,000 -1,800 Descending Atlanta Center
Wed 07:59:19 PM 34.3886 -81.9822 47° Northeast 445 512 20,300 -2,700 Descending Atlanta Center
Wed 08:00:19 PM 34.4764 -81.8717 46° Northeast 450 518 17,600 -2,750 Descending Atlanta Center
Wed 08:01:19 PM 34.5558 -81.7689 47° Northeast 431 496 14,800 -2,842 Descending Atlanta Center
Wed 08:01:54 PM 34.6008 -81.7144 45° Northeast 392 451 13,100 -2,600 Descending Atlanta Center
Wed 08:02:19 PM 34.6292 -81.6733 50° Northeast 408 470 12,200 -2,500 Descending Atlanta Center
Wed 08:02:42 PM 34.6558 -81.6397 46° Northeast 368 423 11,100 -1,200 Descending Atlanta Center
Wed 08:03:19 PM 34.7047 -81.5828 44° Northeast 375 432 11,000 -88 Descending Atlanta Center
Wed 08:03:50 PM 34.7414 -81.5364 46° Northeast 378 435 11,000  Level Atlanta Center
Wed 08:04:19 PM 34.7697 -81.5025 44° Northeast 370 426 11,000 -111 Level Atlanta Center
Wed 08:04:44 PM 34.8019 -81.4433 56° Northeast 384 442 10,900 -400 Descending Atlanta Center
Wed 08:05:19 PM 34.8114 -81.3900 78° East 349 402 10,600 -590 Descending Atlanta Center
Wed 08:05:45 PM 34.8161 -81.3317 84° East 317 365 10,300 -500 Descending Atlanta Center
Wed 08:06:19 PM 34.8175 -81.2886 88° East 316 364 10,100 -393 Descending Atlanta Center
Wed 08:06:46 PM 34.8225 -81.2378 83° East 256 295 9,900 -700 Descending Atlanta Center
Wed 08:07:19 PM 34.8236 -81.1997 88° East 281 323 9,400 -984 Descending Atlanta Center
Wed 08:07:47 PM 34.8269 -81.1567 85° East 240 276 8,900 -1,100 Descending Atlanta Center
Wed 08:08:19 PM 34.8261 -81.1189 92° East 245 282 8,300 -1,343 Descending Atlanta Center
Wed 08:08:54 PM 34.8308 -81.0656 84° East 235 270 7,400 -1,300 Descending Atlanta Center
Wed 08:09:19 PM 34.8344 -81.0400 80° East 236 272 7,000 -1,309 Descending Atlanta Center
Wed 08:09:49 PM 34.8692 -81.0083 37° Northeast 247 284 6,200 -1,000 Descending Atlanta Center
Wed 08:10:19 PM 34.8897 -80.9975 23° Northeast 216 249 6,000 -179 Descending Atlanta Center
Wed 08:10:56 PM 34.9267 -80.9733 28° Northeast 216 249 6,000 -200 Level Atlanta Center
Wed 08:11:19 PM 34.9453 -80.9650 20° North 216 249 5,800 -1,082 Descending Atlanta Center
Wed 08:11:57 PM 34.9867 -80.9483 18° North 209 241 4,900 -1,290 Descending Atlanta Center
Wed 08:12:52 PM 35.0411 -80.9539 355° North 214 246 3,800 -1,077 Descending Atlanta Center
Wed 08:13:54 PM 35.0933 -80.9572 357° North 193 222 2,800 -885 Descending Atlanta Center
Wed 08:14:54 PM 35.1372 -80.9631 354° North 152 175 2,000 -793 Descending Atlanta Center
Wed 08:15:55 PM 35.1769 -80.9667 356° North 139 160 1,200 -787 Descending Atlanta Center

Login

Don't have an account? Register now (free) for customized features, flight alerts, and more!